Time;durP1;ratioP1;P1;durP2;ratioP2;P2;SDS_P1;SDS_P2;PMS_P1;PMS_P2;Temp;Humidity;BMP_temperature;BMP_pressure;BME280_temperature;BME280_humidity;BME280_pressure;Samples;Min_cycle;Max_cycle;Signal;HPM_P1;HPM_P2
2024/04/15 00:01:21;;;;;;;18.83;6.63;;;17.40;70.80;;;22.47;41.90;98838.81;5466628;26;20006;-75
2024/04/15 00:03:54;;;;;;;22.15;6.50;;;17.30;70.80;;;22.46;41.63;98834.47;5493037;26;20005;-74
2024/04/15 00:06:24;;;;;;;17.20;6.03;;;17.30;70.80;;;22.45;42.25;98838.19;5489622;26;20081;-74
2024/04/15 00:08:57;;;;;;;16.20;6.50;;;17.30;71.30;;;22.43;42.48;98834.03;5474647;26;20006;-74
2024/04/15 00:11:32;;;;;;;13.45;5.78;;;17.20;71.30;;;22.39;42.39;98825.59;5475080;26;20479;-75
2024/04/15 00:14:07;;;;;;;13.27;5.22;;;17.30;72.10;;;22.35;42.78;98818.16;5459435;26;20030;-76
2024/04/15 00:16:43;;;;;;;19.17;5.55;;;17.20;72.60;;;22.24;42.73;98819.47;5448820;26;20021;-76
2024/04/15 00:19:15;;;;;;;10.98;5.72;;;17.10;72.50;;;22.26;42.58;98811.28;5448505;26;20017;-77
2024/04/15 00:21:50;;;;;;;14.02;5.40;;;17.10;72.60;;;22.24;42.74;98806.97;5455289;26;20018;-75
2024/04/15 00:24:25;;;;;;;13.38;5.60;;;17.10;72.40;;;22.24;42.64;98793.63;5449435;26;20344;-75
2024/04/15 00:27:00;;;;;;;12.80;5.13;;;17.10;72.80;;;22.21;42.34;98796.69;5443120;26;19998;-74
2024/04/15 00:29:35;;;;;;;10.55;4.85;;;17.10;72.90;;;22.22;42.32;98794.84;5474874;26;20009;-74
2024/04/15 00:32:11;;;;;;;14.93;5.47;;;17.00;73.20;;;22.20;42.78;98792.34;5485045;26;20015;-75
2024/04/15 00:34:43;;;;;;;16.90;6.13;;;17.00;73.70;;;22.13;42.92;98779.97;5500509;26;20005;-75
2024/04/15 00:37:13;;;;;;;15.20;5.70;;;16.90;73.80;;;22.10;43.38;98781.16;5498432;26;20013;-76
2024/04/15 00:39:41;;;;;;;14.48;6.13;;;16.90;74.10;;;22.11;43.39;98771.34;5483927;26;20010;-76
2024/04/15 00:42:11;;;;;;;13.38;5.80;;;16.90;74.30;;;22.08;42.72;98771.72;5442868;26;20003;-74
2024/04/15 00:44:46;;;;;;;17.55;6.05;;;16.80;74.30;;;22.08;42.96;98777.06;5475976;26;20017;-75
2024/04/15 00:47:17;;;;;;;16.95;5.78;;;16.80;74.60;;;22.05;42.51;98772.94;5446845;26;20003;-76
2024/04/15 00:49:50;;;;;;;17.00;5.43;;;16.80;74.40;;;22.01;42.76;98752.97;5481930;26;19998;-76
2024/04/15 00:52:26;;;;;;;14.80;5.65;;;16.70;74.40;;;22.01;43.47;98750.31;5472175;26;20018;-76
2024/04/15 00:54:58;;;;;;;15.75;5.60;;;16.70;74.80;;;21.96;42.82;98752.75;5481873;26;20100;-74
2024/04/15 00:57:34;;;;;;;14.90;6.43;;;16.80;75.20;;;21.89;43.40;98741.19;5466992;26;20372;-74
2024/04/15 01:00:12;;;;;;;15.90;6.57;;;16.70;75.40;;;21.80;43.11;98736.91;5484215;26;20006;-74
2024/04/15 01:02:49;;;;;;;14.88;6.60;;;16.60;75.00;;;21.83;43.49;98741.91;5467110;26;20455;-75
2024/04/15 01:05:17;;;;;;;17.48;7.25;;;16.60;75.50;;;21.83;43.53;98725.09;5469365;26;20014;-75
2024/04/15 01:07:53;;;;;;;25.10;7.53;;;16.60;76.30;;;21.72;44.17;98726.38;5465963;26;20012;-75
2024/04/15 01:10:20;;;;;;;20.38;7.82;;;16.50;77.10;;;21.63;43.92;98719.53;5483109;26;20002;-74
2024/04/15 01:12:51;;;;;;;19.77;7.20;;;16.40;77.60;;;21.48;44.83;98711.56;5474516;26;20002;-74
2024/04/15 01:15:21;;;;;;;17.02;6.45;;;16.30;78.40;;;21.39;44.77;98711.84;5447414;26;20449;-75
2024/04/15 01:17:51;;;;;;;19.08;6.00;;;16.30;78.50;;;21.28;44.27;98714.97;5463173;26;20005;-75
2024/04/15 01:20:19;;;;;;;10.32;5.90;;;16.30;76.80;;;21.29;44.47;98716.63;5484306;26;20021;-74
2024/04/15 01:22:58;;;;;;;12.88;5.28;;;16.30;76.80;;;21.20;43.96;98710.59;5484095;26;20010;-74
2024/04/15 01:25:28;;;;;;;10.65;4.88;;;16.30;75.30;;;21.20;43.56;98703.44;5484284;26;20002;-74
2024/04/15 01:28:04;;;;;;;11.68;4.60;;;16.30;75.00;;;21.27;43.11;98697.38;5474549;26;19994;-75
2024/04/15 01:30:32;;;;;;;12.73;4.85;;;16.20;74.60;;;21.28;42.92;98699.81;5479644;26;20470;-75
2024/04/15 01:33:08;;;;;;;14.95;4.97;;;16.40;74.50;;;21.35;43.07;98689.25;5464220;26;19998;-74
2024/04/15 01:35:40;;;;;;;12.50;5.05;;;16.20;74.30;;;21.32;42.59;98681.63;5483908;26;20009;-75
2024/04/15 01:38:16;;;;;;;13.80;4.85;;;16.60;74.40;;;21.31;43.13;98675.47;5483811;26;20006;-74
2024/04/15 01:40:47;;;;;;;13.20;5.43;;;16.20;74.00;;;21.36;42.74;98682.94;5483375;26;20009;-73
2024/04/15 01:43:17;;;;;;;10.40;4.32;;;16.20;74.30;;;21.33;42.33;98676.16;5481700;26;20821;-73
2024/04/15 01:45:46;;;;;;;9.80;4.20;;;16.10;74.10;;;21.32;42.18;98663.00;5447737;26;20009;-74
2024/04/15 01:48:22;;;;;;;14.00;4.40;;;16.10;74.10;;;21.33;42.37;98667.31;5463156;26;20079;-74
2024/04/15 01:50:54;;;;;;;14.07;4.43;;;16.10;74.10;;;21.35;42.26;98652.81;5456982;26;20021;-75
2024/04/15 01:53:29;;;;;;;15.15;4.65;;;16.10;73.70;;;21.29;41.80;98645.56;5447242;26;20022;-75
2024/04/15 01:55:59;;;;;;;8.50;3.65;;;16.10;73.50;;;21.27;42.53;98644.94;5450342;26;20029;-75
2024/04/15 01:58:35;;;;;;;13.48;3.92;;;16.10;73.60;;;21.30;41.81;98638.41;5482230;26;20470;-74
2024/04/15 02:01:07;;;;;;;12.65;4.47;;;16.00;73.30;;;21.30;42.04;98639.25;5467357;26;20003;-74
2024/04/15 02:03:44;;;;;;;9.02;4.22;;;16.40;74.00;;;21.33;41.99;98638.03;5465463;26;20009;-74
2024/04/15 02:06:12;;;;;;;10.52;4.82;;;16.00;73.90;;;21.33;42.71;98638.88;5541027;20;20019;-82
2024/04/15 02:08:42;;;;;;;16.60;5.55;;;16.00;74.30;;;21.34;42.19;98631.72;5466368;26;20013;-81
2024/04/15 02:11:17;;;;;;;11.18;4.97;;;16.00;74.40;;;21.34;42.53;98631.72;5488476;26;20444;-81
2024/04/15 02:13:48;;;;;;;11.77;5.43;;;16.00;74.80;;;21.27;42.21;98628.97;5489629;26;20089;-82
2024/04/15 02:16:20;;;;;;;15.93;6.38;;;16.00;74.80;;;21.21;42.21;98633.19;5478737;26;20804;-81
2024/04/15 02:18:55;;;;;;;14.60;6.65;;;16.40;75.50;;;21.14;43.09;98626.16;5472881;26;20358;-82
2024/04/15 02:21:28;;;;;;;11.52;5.70;;;15.90;76.20;;;21.03;43.10;98619.44;5459449;26;20366;-81
2024/04/15 02:23:58;;;;;;;14.98;7.18;;;15.90;76.20;;;20.93;43.53;98618.88;5452668;26;20017;-81
2024/04/15 02:26:33;;;;;;;15.75;6.57;;;15.80;77.00;;;20.89;43.46;98619.44;5483353;26;20006;-81
2024/04/15 02:29:08;;;;;;;13.52;5.72;;;15.80;76.90;;;20.86;43.60;98617.97;5483792;26;20021;-81
2024/04/15 02:31:41;;;;;;;14.95;6.20;;;15.80;77.00;;;20.85;44.13;98626.94;5483192;26;20059;-82
2024/04/15 02:34:11;;;;;;;14.13;5.85;;;15.80;77.40;;;20.85;43.91;98613.66;5463343;26;20007;-80
2024/04/15 02:36:44;;;;;;;18.65;5.63;;;15.70;77.40;;;20.82;44.04;98603.38;5452191;26;20007;-82
2024/04/15 02:39:20;;;;;;;12.43;5.32;;;15.70;77.30;;;20.82;43.63;98598.06;5449510;26;20018;-80
2024/04/15 02:41:55;;;;;;;14.50;4.53;;;15.70;76.70;;;20.84;43.39;98590.75;5449298;26;20367;-81
2024/04/15 02:44:25;;;;;;;10.93;5.22;;;15.70;76.70;;;20.88;43.75;98591.19;5451465;26;20021;-82
2024/04/15 02:46:58;;;;;;;17.00;5.90;;;15.70;76.60;;;20.90;43.56;98590.00;5487524;26;20002;-81
2024/04/15 02:49:33;;;;;;;19.02;5.50;;;15.70;77.00;;;20.92;43.53;98589.78;5474473;26;20015;-81
2024/04/15 02:52:01;;;;;;;16.27;5.68;;;15.70;77.40;;;20.93;43.75;98584.28;5453747;26;20006;-80
2024/04/15 02:54:36;;;;;;;15.55;6.07;;;15.70;77.50;;;20.94;43.73;98590.44;5463321;26;20005;-80
2024/04/15 02:57:11;;;;;;;14.38;5.97;;;15.60;77.50;;;20.92;43.61;98582.63;5484629;26;20048;-81
2024/04/15 02:59:41;;;;;;;11.90;6.20;;;15.60;77.30;;;20.90;43.57;98584.66;5484621;26;20006;-81
2024/04/15 03:02:09;;;;;;;11.77;6.15;;;15.60;77.70;;;20.85;43.70;98579.06;5483797;26;20013;-80
2024/04/15 03:04:44;;;;;;;13.38;6.03;;;15.60;77.90;;;20.84;43.57;98573.94;5478071;26;19998;-81
2024/04/15 03:07:12;;;;;;;15.70;5.55;;;15.50;78.60;;;20.80;43.52;98573.50;5482824;26;20006;-79
2024/04/15 03:09:44;;;;;;;11.50;5.65;;;15.50;78.60;;;20.80;44.05;98562.00;5485002;26;20002;-81
2024/04/15 03:12:16;;;;;;;12.32;5.55;;;15.50;79.10;;;20.75;44.03;98554.56;5419296;26;20019;-82
2024/04/15 03:14:46;;;;;;;12.30;5.78;;;15.40;79.60;;;20.74;44.35;98552.94;5450760;26;20007;-82
2024/04/15 03:17:13;;;;;;;17.25;5.07;;;15.50;79.40;;;20.70;44.57;98557.81;5450742;26;20014;-81
2024/04/15 03:19:49;;;;;;;12.82;5.28;;;15.40;79.70;;;20.66;44.38;98561.84;5451632;26;20003;-80
2024/04/15 03:22:21;;;;;;;13.32;5.10;;;15.40;80.00;;;20.68;44.51;98562.47;5450501;26;20076;-80
2024/04/15 03:24:52;;;;;;;15.52;5.10;;;15.40;80.10;;;20.67;44.32;98546.72;5448516;26;20087;-80
2024/04/15 03:27:22;;;;;;;16.83;5.30;;;15.40;79.40;;;20.61;44.63;98542.16;5450496;26;20003;-82
2024/04/15 03:29:52;;;;;;;8.93;4.57;;;15.30;80.10;;;20.54;44.94;98542.06;5451895;26;20022;-82
2024/04/15 03:32:20;;;;;;;13.43;4.93;;;15.30;80.50;;;20.53;44.99;98544.88;5452533;26;20006;-81
2024/04/15 03:34:55;;;;;;;13.23;5.10;;;15.30;80.70;;;20.50;44.94;98545.25;5451887;26;20007;-82
2024/04/15 03:37:26;;;;;;;11.57;5.50;;;15.20;80.50;;;20.54;44.71;98543.88;5452173;26;20542;-81
2024/04/15 03:39:56;;;;;;;16.20;5.45;;;15.20;80.30;;;20.54;44.76;98546.53;5462378;26;20004;-82
2024/04/15 03:42:29;;;;;;;12.18;5.93;;;15.20;80.00;;;20.52;45.02;98544.06;5453310;26;20069;-81
2024/04/15 03:45:07;;;;;;;16.27;6.35;;;15.20;81.10;;;20.50;45.31;98539.94;5416451;26;20015;-81
2024/04/15 03:47:39;;;;;;;16.30;6.07;;;15.10;81.60;;;20.46;45.54;98544.78;5434901;26;20010;-81
2024/04/15 03:50:09;;;;;;;13.05;5.75;;;15.10;82.30;;;20.46;45.82;98536.00;5451220;26;20076;-80
2024/04/15 03:52:42;;;;;;;13.30;6.30;;;15.10;83.20;;;20.38;45.89;98536.09;5450233;26;20007;-81
2024/04/15 03:55:20;;;;;;;17.58;6.40;;;15.00;83.00;;;20.34;45.90;98538.31;5451801;26;20019;-82
2024/04/15 03:57:50;;;;;;;18.52;6.65;;;15.00;83.40;;;20.33;45.90;98527.84;5441954;26;20014;-81
2024/04/15 04:00:21;;;;;;;14.10;6.85;;;15.00;83.60;;;20.31;45.73;98527.22;5417145;26;20007;-82
2024/04/15 04:02:48;;;;;;;15.43;7.07;;;15.00;83.70;;;20.25;46.39;98528.75;5416810;26;20007;-81
2024/04/15 04:05:24;;;;;;;11.60;5.90;;;14.90;84.00;;;20.24;46.10;98523.59;5417843;26;20464;-81
2024/04/15 04:07:57;;;;;;;13.60;6.50;;;14.90;84.30;;;20.22;46.37;98517.66;5403722;26;20008;-79
2024/04/15 04:10:33;;;;;;;17.67;7.18;;;14.90;84.30;;;20.19;46.19;98509.00;5442586;26;20042;-79
2024/04/15 04:13:08;;;;;;;14.05;6.53;;;14.90;84.20;;;20.15;46.17;98510.38;5450321;26;20003;-81
2024/04/15 04:15:44;;;;;;;18.75;8.07;;;14.80;84.60;;;20.14;46.37;98508.75;5419434;26;20007;-80
2024/04/15 04:18:12;;;;;;;17.70;8.45;;;14.80;84.80;;;20.12;46.24;98510.75;5449923;26;20344;-79
2024/04/15 04:20:47;;;;;;;17.98;8.63;;;14.80;85.00;;;20.13;46.28;98511.56;5440697;26;19995;-79
2024/04/15 04:23:22;;;;;;;20.98;8.68;;;14.80;85.40;;;20.11;46.50;98517.09;5417393;26;20035;-79
2024/04/15 04:25:50;;;;;;;18.67;8.88;;;14.70;85.90;;;20.10;46.68;98510.13;5447754;26;20075;-78
2024/04/15 04:28:28;;;;;;;17.65;9.40;;;14.70;86.50;;;20.06;46.65;98511.47;5439785;26;20007;-79
2024/04/15 04:31:02;;;;;;;21.63;9.38;;;14.70;87.00;;;19.97;46.94;98519.72;5430889;26;20018;-78
2024/04/15 04:33:37;;;;;;;21.05;8.23;;;14.70;87.10;;;19.87;46.99;98513.84;5450652;26;20002;-79
2024/04/15 04:36:15;;;;;;;20.63;8.52;;;14.60;87.10;;;19.77;47.00;98515.94;5447482;26;20006;-79
2024/04/15 04:38:46;;;;;;;15.02;7.65;;;14.50;86.60;;;19.77;46.78;98510.63;5446772;26;20014;-78
2024/04/15 04:41:14;;;;;;;16.58;6.50;;;14.50;86.80;;;19.78;46.93;98502.50;5407426;26;20045;-79
2024/04/15 04:43:52;;;;;;;16.65;6.65;;;14.50;86.80;;;19.70;46.48;98499.88;5448263;26;20028;-78
2024/04/15 04:46:24;;;;;;;14.65;6.75;;;14.40;86.50;;;19.69;46.53;98498.25;5425602;26;19999;-79
2024/04/15 04:49:00;;;;;;;20.38;7.43;;;14.50;86.60;;;19.67;46.86;98494.94;5412554;26;20014;-78
2024/04/15 04:51:27;;;;;;;24.05;7.00;;;14.40;86.60;;;19.62;47.04;98490.19;5433404;26;20090;-78
2024/04/15 04:54:21;;;;;;;16.33;7.32;;;14.40;86.80;;;19.60;47.28;98499.31;5451796;26;20377;-79
2024/04/15 04:56:54;;;;;;;19.75;7.03;;;14.40;87.20;;;19.63;47.38;98499.78;5438783;26;20321;-79
2024/04/15 04:59:31;;;;;;;16.10;6.68;;;14.40;87.40;;;19.65;47.08;98496.97;5438064;26;20432;-81
2024/04/15 05:01:59;;;;;;;15.48;6.60;;;14.40;87.20;;;19.64;46.98;98488.16;5438283;26;20117;-77
2024/04/15 05:04:30;;;;;;;15.45;6.13;;;14.50;87.00;;;19.67;46.87;98489.63;5446496;26;20006;-78
2024/04/15 05:06:57;;;;;;;16.60;6.25;;;14.50;86.90;;;19.69;46.73;98491.09;5438450;26;20007;-77
2024/04/15 05:09:28;;;;;;;14.88;5.57;;;14.50;86.50;;;19.70;46.73;98489.28;5411785;26;20003;-78
2024/04/15 05:12:01;;;;;;;16.13;6.03;;;14.90;86.40;;;19.64;46.51;98488.16;5413061;26;20003;-78
2024/04/15 05:14:38;;;;;;;19.02;6.22;;;14.50;85.90;;;19.60;46.73;98488.69;5437733;26;19998;-78
2024/04/15 05:17:08;;;;;;;13.43;5.68;;;14.50;85.90;;;19.58;46.40;98485.41;5446673;26;20546;-77
2024/04/15 05:19:43;;;;;;;20.48;6.57;;;14.60;85.00;;;19.60;46.47;98488.69;5452249;26;20025;-79
2024/04/15 05:22:11;;;;;;;19.58;7.82;;;14.60;85.20;;;19.59;46.47;98485.22;5437443;26;20069;-78
2024/04/15 05:24:46;;;;;;;20.05;7.05;;;14.60;84.90;;;19.58;45.85;98491.53;5409456;26;20008;-78
2024/04/15 05:27:13;;;;;;;18.25;7.10;;;14.70;84.40;;;19.65;46.27;98499.63;5446713;26;20479;-78
2024/04/15 05:29:51;;;;;;;17.52;7.88;;;14.80;84.50;;;19.68;46.27;98488.63;5449996;26;20456;-79
2024/04/15 05:32:19;;;;;;;20.58;7.60;;;14.80;84.60;;;19.73;46.33;98488.06;5450071;26;20018;-79
2024/04/15 05:34:54;;;;;;;19.10;6.90;;;14.90;84.50;;;19.80;46.29;98492.50;5416991;26;20357;-78
2024/04/15 05:37:22;;;;;;;14.77;6.95;;;14.90;84.30;;;19.84;46.05;98485.81;5412721;26;20019;-78
2024/04/15 05:39:52;;;;;;;21.33;7.65;;;15.00;84.40;;;19.91;46.31;98494.72;5426123;26;20006;-78
2024/04/15 05:42:20;;;;;;;19.60;6.85;;;15.10;84.40;;;19.97;46.15;98486.00;5444968;26;19999;-78
2024/04/15 05:44:52;;;;;;;18.30;8.23;;;15.20;83.30;;;20.01;46.06;98481.16;5433201;26;20003;-78
2024/04/15 05:47:20;;;;;;;19.90;7.40;;;15.30;83.40;;;20.09;45.88;98492.50;5443183;26;20017;-78
2024/04/15 05:49:50;;;;;;;20.85;6.47;;;15.50;83.00;;;20.18;45.91;98488.78;5446267;26;20026;-78
2024/04/15 05:52:23;;;;;;;20.70;7.10;;;15.60;82.20;;;20.32;45.53;98491.66;5442698;26;19999;-79
2024/04/15 05:54:58;;;;;;;25.48;7.32;;;15.80;81.80;;;20.50;45.38;98492.06;5421661;26;20011;-78
2024/04/15 05:57:31;;;;;;;20.98;7.15;;;16.00;80.90;;;20.62;45.29;98486.09;5414533;26;20014;-78
2024/04/15 06:00:05;;;;;;;21.88;7.68;;;16.10;80.70;;;20.69;45.09;98486.16;5438473;26;20359;-78
2024/04/15 06:02:39;;;;;;;15.77;6.30;;;16.10;80.10;;;20.80;44.85;98488.34;5424643;26;20000;-77
2024/04/15 06:05:15;;;;;;;23.40;6.97;;;16.20;79.90;;;20.91;44.66;98479.84;5435609;26;20007;-78
2024/04/15 06:07:42;;;;;;;13.95;5.70;;;16.30;80.00;;;21.00;44.29;98480.59;5443939;26;20007;-78
2024/04/15 06:10:12;;;;;;;16.88;6.13;;;16.30;79.50;;;21.06;44.51;98480.66;5448752;26;20003;-78
2024/04/15 06:12:41;;;;;;;15.63;6.50;;;16.40;79.30;;;21.13;44.49;98478.91;5450728;26;20014;-78
2024/04/15 06:15:13;;;;;;;17.55;5.57;;;16.50;79.20;;;21.23;44.49;98473.28;5450204;26;20079;-77
2024/04/15 06:17:41;;;;;;;21.10;6.38;;;16.60;78.80;;;21.25;44.30;98465.91;5449548;26;20047;-78
2024/04/15 06:20:12;;;;;;;16.88;6.15;;;16.60;78.90;;;21.26;44.40;98467.56;5422556;26;20015;-78
2024/04/15 06:22:40;;;;;;;15.88;6.07;;;16.60;79.40;;;21.33;44.13;98464.97;5434695;26;20006;-78
2024/04/15 06:25:10;;;;;;;15.57;5.55;;;16.70;79.20;;;21.38;44.20;98463.34;5447647;26;20084;-78
2024/04/15 06:27:38;;;;;;;17.13;5.80;;;16.80;79.10;;;21.43;43.86;98460.13;5447702;26;19998;-77
2024/04/15 06:30:10;;;;;;;10.57;5.07;;;16.80;78.40;;;21.43;43.86;98468.13;5441837;26;20131;-78
2024/04/15 06:32:40;;;;;;;11.45;4.80;;;16.90;78.20;;;21.44;43.62;98464.44;5424484;26;20000;-77
2024/04/15 06:35:10;;;;;;;15.85;5.38;;;16.90;78.10;;;21.51;43.91;98459.97;5414211;26;20007;-77
2024/04/15 06:37:38;;;;;;;23.83;6.72;;;17.00;78.60;;;21.61;44.30;98455.13;5413889;26;20019;-78
2024/04/15 06:40:13;;;;;;;22.73;6.13;;;17.10;78.40;;;21.62;44.57;98454.13;5398669;26;20014;-78
2024/04/15 06:42:46;;;;;;;20.35;6.38;;;17.20;78.90;;;21.73;44.36;98449.06;5450035;26;20049;-78
2024/04/15 06:45:19;;;;;;;22.20;6.13;;;17.30;78.90;;;21.84;43.80;98445.06;5447113;26;20397;-78
2024/04/15 06:47:53;;;;;;;19.25;6.15;;;17.50;78.00;;;21.93;43.93;98443.91;5447612;26;20007;-78
2024/04/15 06:50:27;;;;;;;19.30;6.68;;;17.50;78.20;;;21.97;43.85;98434.50;5411839;26;20004;-78
2024/04/15 06:52:59;;;;;;;19.85;5.65;;;17.60;78.00;;;22.05;44.05;98437.03;5414116;26;20366;-79
2024/04/15 06:55:26;;;;;;;14.90;5.15;;;17.70;78.30;;;22.17;43.82;98443.44;5413448;26;20008;-79
2024/04/15 06:57:57;;;;;;;15.75;5.50;;;17.80;77.50;;;22.28;43.57;98444.72;5415523;26;20790;-80
2024/04/15 07:00:24;;;;;;;27.40;4.97;;;17.90;77.30;;;22.37;43.43;98440.03;5429637;26;19999;-78
2024/04/15 07:02:57;;;;;;;16.13;5.38;;;17.90;77.40;;;22.46;43.59;98446.88;5421390;26;20004;-79
2024/04/15 07:05:25;;;;;;;14.75;5.13;;;18.00;76.90;;;22.47;42.97;98435.97;5470525;26;20002;-78
2024/04/15 07:07:55;;;;;;;16.08;4.78;;;18.10;76.90;;;22.50;43.70;98440.09;5448852;26;20010;-79
2024/04/15 07:10:23;;;;;;;20.92;5.40;;;18.00;76.60;;;22.50;42.94;98435.56;5420850;26;20018;-81
2024/04/15 07:12:54;;;;;;;17.75;4.90;;;18.10;76.40;;;22.54;43.04;98434.16;5443696;26;20022;-77
2024/04/15 07:15:21;;;;;;;19.35;5.07;;;18.20;76.20;;;22.63;42.94;98424.13;5411456;26;20008;-79
2024/04/15 07:17:52;;;;;;;16.48;5.28;;;18.30;76.30;;;22.71;43.17;98421.31;5413882;26;20007;-79
2024/04/15 07:20:22;;;;;;;15.18;5.05;;;18.40;75.90;;;22.80;42.85;98420.09;5438881;26;20003;-79
2024/04/15 07:22:52;;;;;;;17.63;4.63;;;18.40;75.30;;;22.84;42.56;98417.84;5417186;26;20014;-79
2024/04/15 07:25:20;;;;;;;15.77;4.63;;;18.50;75.50;;;22.90;42.68;98423.19;5448318;26;20562;-78
2024/04/15 07:27:50;;;;;;;16.38;4.40;;;18.60;75.40;;;23.01;42.36;98417.28;5446714;26;20007;-79
2024/04/15 07:30:18;;;;;;;17.88;4.47;;;18.70;74.80;;;23.13;42.08;98415.63;5435325;26;20003;-79
2024/04/15 07:32:54;;;;;;;21.42;4.68;;;18.90;74.40;;;23.21;42.29;98414.63;5448168;26;20003;-79
2024/04/15 07:35:25;;;;;;;15.40;4.22;;;19.00;74.40;;;23.37;42.29;98421.38;5448649;26;20075;-79
2024/04/15 07:37:55;;;;;;;10.73;3.65;;;19.20;73.90;;;23.43;41.50;98418.75;5447232;26;20007;-79
2024/04/15 07:40:23;;;;;;;14.57;4.18;;;19.20;73.60;;;23.55;41.40;98424.28;5447150;26;20031;-79
2024/04/15 07:42:55;;;;;;;14.48;3.90;;;19.30;72.90;;;23.66;41.07;98426.34;5448971;26;20906;-80
2024/04/15 07:45:23;;;;;;;11.63;3.92;;;19.50;72.60;;;23.81;41.29;98420.78;5447853;26;20802;-79
2024/04/15 07:47:53;;;;;;;9.75;3.30;;;19.70;71.90;;;23.88;40.92;98429.56;5449241;26;20083;-78
2024/04/15 07:50:20;;;;;;;13.43;3.70;;;19.80;71.60;;;24.02;41.14;98431.19;5426062;26;20000;-79
2024/04/15 07:52:58;;;;;;;13.32;3.58;;;19.80;71.00;;;24.03;40.81;98428.31;5426772;26;20011;-78
2024/04/15 07:55:31;;;;;;;10.05;3.80;;;19.80;71.00;;;24.04;40.58;98426.47;5448764;26;20010;-79
2024/04/15 07:58:01;;;;;;;15.32;3.47;;;19.80;71.30;;;24.09;41.12;98422.13;5451661;26;20007;-78
2024/04/15 08:00:29;;;;;;;21.67;4.15;;;19.90;71.40;;;24.13;40.60;98422.56;5451593;26;20007;-78
2024/04/15 08:02:59;;;;;;;11.23;3.47;;;20.00;71.20;;;24.23;40.13;98418.41;5452324;26;20006;-78
2024/04/15 08:05:29;;;;;;;16.33;4.00;;;20.20;70.20;;;24.35;40.10;98420.41;5451439;26;20002;-79
2024/04/15 08:07:59;;;;;;;13.02;3.28;;;20.40;70.00;;;24.47;39.74;98422.22;5443174;26;20008;-79
2024/04/15 08:10:30;;;;;;;12.50;3.55;;;20.50;69.70;;;24.52;40.21;98432.28;5414277;26;20008;-78
2024/04/15 08:12:57;;;;;;;11.32;3.00;;;20.50;69.20;;;24.57;39.83;98416.41;5448142;26;20007;-79
2024/04/15 08:15:33;;;;;;;14.80;4.55;;;20.60;69.00;;;24.68;40.00;98415.72;5416419;26;20004;-79
2024/04/15 08:18:01;;;;;;;8.65;3.08;;;20.80;69.10;;;24.76;39.74;98432.34;5420842;26;20008;-79
2024/04/15 08:20:36;;;;;;;11.65;4.05;;;20.80;69.30;;;24.90;39.66;98430.44;5431490;26;20021;-77
2024/04/15 08:23:12;;;;;;;13.65;4.43;;;21.00;69.00;;;25.06;39.78;98439.84;5433898;26;20076;-78
2024/04/15 08:25:54;;;;;;;14.20;4.13;;;21.20;68.80;;;25.20;39.79;98439.53;5426325;26;20349;-77
2024/04/15 08:28:24;;;;;;;21.90;4.65;;;21.50;68.80;;;25.36;39.52;98430.13;5415775;26;20019;-78
2024/04/15 08:30:54;;;;;;;16.00;4.25;;;21.50;68.20;;;25.47;39.26;98431.28;5429387;26;20344;-78
2024/04/15 08:33:26;;;;;;;15.90;4.75;;;21.70;68.10;;;25.62;39.19;98443.34;5451810;26;20022;-78
2024/04/15 08:36:03;;;;;;;16.60;4.53;;;21.90;67.80;;;25.77;39.12;98437.63;5429722;26;20003;-79
2024/04/15 08:38:33;;;;;;;13.95;4.28;;;22.00;68.00;;;25.84;39.38;98441.09;5451890;26;20016;-79
2024/04/15 08:41:04;;;;;;;12.48;4.22;;;22.00;67.60;;;25.90;39.05;98442.88;5451796;26;20460;-78
2024/04/15 08:43:32;;;;;;;13.57;3.97;;;22.10;67.40;;;25.97;39.00;98435.59;5452012;26;20006;-79
2024/04/15 08:46:04;;;;;;;17.63;4.50;;;22.30;67.00;;;26.05;38.67;98440.63;5428684;26;20000;-79
2024/04/15 08:48:32;;;;;;;18.67;5.25;;;22.40;66.30;;;26.15;38.83;98424.84;5420527;26;20088;-79
2024/04/15 08:51:03;;;;;;;14.15;4.63;;;22.60;66.40;;;26.21;38.63;98428.53;5451389;26;20018;-79
2024/04/15 08:53:33;;;;;;;13.85;3.80;;;22.50;66.10;;;26.20;38.41;98426.91;5451125;26;20007;-80
2024/04/15 08:56:11;;;;;;;14.07;3.65;;;22.40;65.00;;;26.20;38.07;98425.03;5450620;26;20002;-80
2024/04/15 08:58:51;;;;;;;14.38;3.42;;;22.30;65.20;;;26.25;38.11;98425.16;5451033;26;20010;-80
2024/04/15 09:01:21;;;;;;;20.85;4.53;;;22.50;65.60;;;26.36;38.00;98437.03;5434021;26;20003;-80
2024/04/15 09:03:54;;;;;;;12.00;3.95;;;22.70;65.10;;;26.42;37.59;98424.56;5415636;26;20007;-78
2024/04/15 09:06:24;;;;;;;15.10;4.03;;;22.70;64.90;;;26.51;37.50;98421.34;5440036;26;20011;-79
2024/04/15 09:08:55;;;;;;;14.63;4.37;;;22.80;64.10;;;26.62;37.66;98419.75;5416354;26;20035;-80
2024/04/15 09:11:37;;;;;;;18.38;4.07;;;22.90;64.20;;;26.66;37.25;98420.94;5415256;26;20460;-80
2024/04/15 09:14:09;;;;;;;;;;;22.80;63.00;;;26.65;37.90;98424.66;5414767;26;20008;-80
2024/04/15 09:16:40;;;;;;;16.58;4.10;;;23.10;63.10;;;26.94;36.85;98413.13;5415779;26;19936;-79
2024/04/15 09:19:09;;;;;;;15.18;4.72;;;23.30;62.50;;;27.14;36.31;98415.50;5435447;26;20006;-79
2024/04/15 09:21:40;;;;;;;12.13;3.63;;;23.60;61.70;;;27.22;35.96;98413.34;5450869;26;20006;-79
2024/04/15 09:24:11;;;;;;;15.27;4.35;;;23.50;60.70;;;27.34;35.50;98402.56;5450094;26;20014;-79
2024/04/15 09:26:41;;;;;;;17.48;4.10;;;23.60;60.10;;;27.41;35.67;98397.09;5448985;26;20462;-79
2024/04/15 09:29:09;;;;;;;11.18;3.75;;;23.80;60.30;;;27.47;35.52;98386.25;5451347;26;20007;-79
2024/04/15 09:31:45;;;;;;;15.55;4.32;;;23.80;60.30;;;27.51;35.46;98394.69;5451164;26;20021;-79
2024/04/15 09:34:15;;;;;;;13.15;4.05;;;23.70;60.00;;;27.36;35.65;98391.59;5418645;26;20007;-78
2024/04/15 09:36:59;;;;;;;12.68;4.60;;;23.40;61.30;;;27.38;35.91;98395.69;5408998;26;20003;-80
2024/04/15 09:39:32;;;;;;;14.32;4.40;;;23.70;61.90;;;27.54;35.94;98403.09;5448539;26;20017;-79
2024/04/15 09:42:03;;;;;;;11.13;4.50;;;24.00;61.00;;;27.70;35.69;98396.19;5450316;26;20083;-78
2024/04/15 09:44:32;;;;;;;18.75;5.65;;;24.10;60.70;;;27.77;36.05;98375.38;5450157;26;20002;-79
2024/04/15 09:47:08;;;;;;;11.45;4.93;;;24.00;60.80;;;27.70;35.98;98375.50;5429920;26;20604;-79
2024/04/15 09:49:43;;;;;;;12.98;4.38;;;23.80;61.70;;;27.71;35.80;98385.22;5450989;26;20014;-80
2024/04/15 09:52:23;;;;;;;12.60;4.60;;;24.00;61.30;;;27.83;36.15;98382.50;5450292;26;20337;-79
2024/04/15 09:55:06;;;;;;;15.15;4.70;;;24.20;60.40;;;27.93;35.78;98379.19;5423386;26;20003;-79
2024/04/15 09:57:39;;;;;;;16.73;4.85;;;24.50;59.80;;;28.06;35.28;98369.03;5414344;26;20008;-78
2024/04/15 10:00:13;;;;;;;10.85;4.70;;;24.70;59.10;;;28.18;35.21;98375.22;5405107;26;20420;-79
2024/04/15 10:02:55;;;;;;;9.65;4.22;;;24.70;58.80;;;28.23;35.03;98375.31;5449322;26;20074;-79
2024/04/15 10:05:24;;;;;;;15.30;5.30;;;24.60;58.50;;;28.21;34.96;98371.22;5447655;26;20003;-79
2024/04/15 10:07:57;;;;;;;24.42;5.45;;;24.50;59.00;;;28.13;34.38;98380.47;5435139;26;20011;-79
2024/04/15 10:10:29;;;;;;;12.65;5.03;;;24.30;59.30;;;28.13;35.14;98379.66;5443172;26;20018;-78
2024/04/15 10:13:07;;;;;;;16.05;5.30;;;24.10;59.90;;;27.95;34.83;98388.69;5432919;26;20448;-78
2024/04/15 10:15:39;;;;;;;14.73;5.35;;;23.80;59.70;;;27.72;35.50;98386.84;5452091;26;20005;-79
2024/04/15 10:18:17;;;;;;;18.88;5.50;;;23.70;61.00;;;27.82;35.37;98383.56;5425256;26;20031;-78
2024/04/15 10:20:51;;;;;;;15.43;4.95;;;23.90;60.00;;;27.74;34.70;98375.84;5413410;26;20647;-79
2024/04/15 10:23:24;;;;;;;13.30;4.55;;;23.60;59.70;;;27.65;34.87;98375.41;5444929;26;20007;-79
2024/04/15 10:25:54;;;;;;;16.10;4.82;;;23.60;60.10;;;27.60;35.08;98377.13;5438045;26;20011;-79
2024/04/15 10:28:30;;;;;;;13.90;4.65;;;23.50;59.80;;;27.53;35.30;98374.56;5437956;26;20002;-78
2024/04/15 10:31:01;;;;;;;13.65;4.38;;;23.60;60.60;;;27.62;35.24;98369.66;5433183;26;20089;-80
2024/04/15 10:33:37;;;;;;;11.68;5.25;;;23.70;60.40;;;27.57;35.84;98364.97;5414109;26;20083;-80